Time;durP1;ratioP1;P1;durP2;ratioP2;P2;SDS_P1;SDS_P2;PMS_P1;PMS_P2;Temp;Humidity;BMP_temperature;BMP_pressure;BME280_temperature;BME280_humidity;BME280_pressure;Samples;Min_cycle;Max_cycle;Signal;HPM_P1;HPM_P2
2021/10/25 00:01:51;;;;;;;16.27;11.13;;;;;;;;;;5017404;28;20198;-71
2021/10/25 00:04:17;;;;;;;18.53;10.93;;;;;;;;;;5027931;28;20333;-72
2021/10/25 00:06:43;;;;;;;19.50;11.03;;;;;;;;;;5021092;28;20634;-71
2021/10/25 00:09:08;;;;;;;19.97;10.97;;;;;;;;;;5028615;28;20313;-71
2021/10/25 00:11:33;;;;;;;16.37;10.70;;;;;;;;;;5017369;28;20225;-72
2021/10/25 00:13:59;;;;;;;19.17;11.70;;;;;;;;;;5024874;28;20779;-72
2021/10/25 00:16:24;;;;;;;17.73;10.60;;;;;;;;;;5019229;28;20587;-73
2021/10/25 00:18:49;;;;;;;15.17;10.13;;;;;;;;;;5029228;28;20206;-73
2021/10/25 00:21:15;;;;;;;15.77;9.90;;;;;;;;;;5025280;28;20189;-70
2021/10/25 00:23:40;;;;;;;20.47;10.00;;;;;;;;;;5020921;28;20286;-71
2021/10/25 00:26:06;;;;;;;20.97;10.63;;;;;;;;;;5024209;28;20289;-70
2021/10/25 00:28:32;;;;;;;17.20;10.10;;;;;;;;;;5017398;28;20277;-71
2021/10/25 00:30:57;;;;;;;17.57;10.43;;;;;;;;;;5024364;28;20622;-71
2021/10/25 00:33:22;;;;;;;19.30;10.97;;;;;;;;;;5019555;28;20194;-71
2021/10/25 00:35:48;;;;;;;17.30;10.00;;;;;;;;;;5024610;28;20260;-71
2021/10/25 00:38:15;;;;;;;15.27;10.20;;;;;;;;;;5017223;28;20201;-71
2021/10/25 00:40:40;;;;;;;16.77;10.30;;;;;;;;;;5021451;28;20641;-72
2021/10/25 00:43:06;;;;;;;19.53;9.80;;;;;;;;;;5020744;28;20210;-71
2021/10/25 00:45:31;;;;;;;15.27;10.27;;;;;;;;;;5027747;28;20182;-71
2021/10/25 00:47:57;;;;;;;16.97;10.57;;;;;;;;;;5018813;28;20200;-72
2021/10/25 00:50:23;;;;;;;16.67;10.70;;;;;;;;;;5026947;28;20182;-72
2021/10/25 00:52:48;;;;;;;19.37;10.40;;;;;;;;;;5026699;28;20590;-72
2021/10/25 00:55:14;;;;;;;18.70;10.40;;;;;;;;;;5018583;28;20208;-72
2021/10/25 00:57:39;;;;;;;16.03;10.90;;;;;;;;;;5025569;28;20642;-72
2021/10/25 01:00:07;;;;;;;15.43;10.37;;;;;;;;;;5014925;28;20714;-71
2021/10/25 01:02:32;;;;;;;17.93;11.60;;;;;;;;;;5025289;28;20267;-71
2021/10/25 01:04:58;;;;;;;19.07;11.87;;;;;;;;;;5017254;28;20652;-72
2021/10/25 01:07:24;;;;;;;18.33;10.47;;;;;;;;;;5026055;28;20198;-72
2021/10/25 01:09:50;;;;;;;18.90;10.97;;;;;;;;;;5020076;28;20227;-73
2021/10/25 01:12:15;;;;;;;18.27;11.60;;;;;;;;;;5026941;28;20196;-72
2021/10/25 01:14:41;;;;;;;18.33;11.43;;;;;;;;;;5017558;28;20186;-72
2021/10/25 01:17:06;;;;;;;17.27;11.40;;;;;;;;;;5026025;28;20182;-73
2021/10/25 01:19:32;;;;;;;16.70;11.47;;;;;;;;;;5018279;28;20194;-73
2021/10/25 01:21:57;;;;;;;20.47;12.40;;;;;;;;;;5026637;28;20181;-72
2021/10/25 01:24:23;;;;;;;15.93;10.93;;;;;;;;;;5020348;28;20190;-73
2021/10/25 01:26:48;;;;;;;17.43;11.93;;;;;;;;;;5018808;28;20280;-72
2021/10/25 01:29:18;;;;;;;17.43;12.20;;;;;;;;;;5022523;28;20198;-72
2021/10/25 01:31:44;;;;;;;18.87;11.27;;;;;;;;;;5018058;28;20186;-72
2021/10/25 01:34:12;;;;;;;19.03;11.73;;;;;;;;;;5023823;28;20194;-72
2021/10/25 01:36:38;;;;;;;18.67;11.93;;;;;;;;;;5015712;28;20508;-72
2021/10/25 01:39:03;;;;;;;17.50;11.93;;;;;;;;;;5027502;28;20185;-72
2021/10/25 01:41:29;;;;;;;19.60;12.80;;;;;;;;;;5019763;28;20194;-72
2021/10/25 01:43:54;;;;;;;17.63;11.93;;;;;;;;;;5028562;28;20343;-72
2021/10/25 01:46:20;;;;;;;21.13;12.23;;;;;;;;;;5017246;28;20208;-72
2021/10/25 01:48:45;;;;;;;24.67;12.93;;;;;;;;;;5024754;28;20209;-72
2021/10/25 01:51:10;;;;;;;21.13;13.03;;;;;;;;;;5018337;28;20182;-73
2021/10/25 01:53:37;;;;;;;19.37;12.60;;;;;;;;;;5026237;28;20278;-72
2021/10/25 01:56:03;;;;;;;17.53;11.67;;;;;;;;;;5021983;28;20221;-73
2021/10/25 01:58:29;;;;;;;17.07;12.00;;;;;;;;;;5014172;28;20212;-73
2021/10/25 02:00:55;;;;;;;20.97;11.73;;;;;;;;;;5019714;28;20193;-72
2021/10/25 02:03:20;;;;;;;19.03;12.60;;;;;;;;;;5014606;28;20217;-73
2021/10/25 02:05:46;;;;;;;20.57;12.77;;;;;;;;;;5025324;28;20531;-72
2021/10/25 02:08:11;;;;;;;24.93;13.57;;;;;;;;;;5014763;28;20272;-72
2021/10/25 02:10:37;;;;;;;18.90;13.20;;;;;;;;;;5023227;28;20189;-72
2021/10/25 02:13:03;;;;;;;19.10;13.17;;;;;;;;;;5016252;28;20194;-71
2021/10/25 02:15:29;;;;;;;23.10;13.90;;;;;;;;;;5025312;28;20259;-72
2021/10/25 02:17:55;;;;;;;21.90;13.33;;;;;;;;;;5015806;28;20206;-72
2021/10/25 02:20:21;;;;;;;20.77;13.23;;;;;;;;;;5025668;28;20205;-72
2021/10/25 02:22:47;;;;;;;22.53;14.10;;;;;;;;;;5015219;28;20213;-72
2021/10/25 02:25:12;;;;;;;23.73;14.60;;;;;;;;;;5025268;28;20198;-72
2021/10/25 02:27:38;;;;;;;21.13;14.37;;;;;;;;;;5024051;28;20200;-71
2021/10/25 02:30:04;;;;;;;18.87;13.20;;;;;;;;;;5015473;28;20272;-71
2021/10/25 02:32:30;;;;;;;21.43;13.90;;;;;;;;;;5025436;28;20185;-71
2021/10/25 02:34:56;;;;;;;24.90;15.23;;;;;;;;;;5013623;28;20205;-72
2021/10/25 02:37:22;;;;;;;26.07;15.13;;;;;;;;;;5031328;28;20185;-71
2021/10/25 02:39:48;;;;;;;23.77;15.07;;;;;;;;;;5015171;28;20706;-71
2021/10/25 02:42:14;;;;;;;23.83;15.27;;;;;;;;;;5022806;28;20286;-71
2021/10/25 02:44:40;;;;;;;22.40;14.97;;;;;;;;;;5016811;28;20269;-73
2021/10/25 02:47:05;;;;;;;24.43;15.30;;;;;;;;;;5025269;28;20222;-71
2021/10/25 02:49:31;;;;;;;25.37;15.10;;;;;;;;;;5016351;28;20277;-72
2021/10/25 02:51:56;;;;;;;24.00;15.77;;;;;;;;;;5020152;28;20190;-71
2021/10/25 02:54:24;;;;;;;22.60;14.77;;;;;;;;;;5016811;28;20193;-72
2021/10/25 02:56:51;;;;;;;23.13;15.37;;;;;;;;;;5022273;28;20202;-71
2021/10/25 02:59:17;;;;;;;23.10;14.67;;;;;;;;;;5027318;28;20213;-71
2021/10/25 03:01:43;;;;;;;23.90;14.33;;;;;;;;;;5015656;28;20190;-72
2021/10/25 03:04:09;;;;;;;29.73;16.27;;;;;;;;;;5020723;28;20885;-71
2021/10/25 03:06:35;;;;;;;23.73;14.87;;;;;;;;;;5018241;28;20206;-71
2021/10/25 03:09:00;;;;;;;23.83;15.27;;;;;;;;;;5023303;28;20700;-71
2021/10/25 03:11:27;;;;;;;24.03;15.80;;;;;;;;;;5017188;28;20556;-71
2021/10/25 03:13:53;;;;;;;21.23;14.77;;;;;;;;;;5019461;28;20693;-72
2021/10/25 03:16:20;;;;;;;26.63;16.77;;;;;;;;;;5020360;28;20703;-71
2021/10/25 03:18:46;;;;;;;26.40;17.00;;;;;;;;;;5029492;28;20197;-71
2021/10/25 03:21:12;;;;;;;28.57;15.93;;;;;;;;;;5023305;28;20193;-72
2021/10/25 03:23:38;;;;;;;21.80;14.63;;;;;;;;;;5030155;28;20255;-71
2021/10/25 03:26:04;;;;;;;20.63;14.67;;;;;;;;;;5023220;28;20193;-71
2021/10/25 03:28:29;;;;;;;28.83;16.67;;;;;;;;;;5032086;28;20190;-71
2021/10/25 03:30:54;;;;;;;28.67;16.73;;;;;;;;;;5028820;28;20205;-70
2021/10/25 03:33:20;;;;;;;22.40;15.97;;;;;;;;;;5020668;28;20240;-71
2021/10/25 03:35:46;;;;;;;24.53;15.67;;;;;;;;;;5029752;28;20312;-71
2021/10/25 03:38:13;;;;;;;27.30;15.53;;;;;;;;;;5019832;28;20241;-71
2021/10/25 03:40:41;;;;;;;25.03;15.47;;;;;;;;;;5027316;28;20368;-71
2021/10/25 03:43:07;;;;;;;27.13;15.93;;;;;;;;;;5023545;28;20222;-71
2021/10/25 03:45:47;;;;;;;25.10;16.07;;;;;;;;;;5030820;28;20282;-70
2021/10/25 03:48:24;;;;;;;26.20;15.30;;;;;;;;;;5018924;28;20510;-72
2021/10/25 03:50:51;;;;;;;24.83;15.47;;;;;;;;;;5028087;28;20186;-72
2021/10/25 03:53:40;;;;;;;27.33;16.50;;;;;;;;;;5020696;28;20185;-72
2021/10/25 03:56:14;;;;;;;26.67;15.87;;;;;;;;;;5026258;28;20209;-71
2021/10/25 03:59:03;;;;;;;23.50;15.60;;;;;;;;;;5018623;28;20188;-72
2021/10/25 04:25:52;;;;;;;18.33;12.97;;;;;;;;;;5021344;28;20228;-72
2021/10/25 04:28:21;;;;;;;16.90;11.37;;;;;;;;;;5025364;28;20186;-71
2021/10/25 04:30:53;;;;;;;20.87;12.47;;;;;;;;;;5014601;28;20186;-71
2021/10/25 04:33:19;;;;;;;16.40;10.83;;;;;;;;;;5027082;28;20324;-72
2021/10/25 04:35:44;;;;;;;18.23;11.50;;;;;;;;;;5018913;28;20273;-72
2021/10/25 04:38:10;;;;;;;14.93;10.47;;;;;;;;;;5025269;28;20650;-72
2021/10/25 04:40:35;;;;;;;17.63;10.23;;;;;;;;;;5015980;28;20277;-71
2021/10/25 04:43:01;;;;;;;16.17;11.20;;;;;;;;;;5027192;28;20210;-71
2021/10/25 04:45:26;;;;;;;17.50;11.13;;;;;;;;;;5020021;28;20636;-72
2021/10/25 04:47:53;;;;;;;19.23;11.33;;;;;;;;;;5025617;28;20336;-72
2021/10/25 04:50:18;;;;;;;18.00;10.63;;;;;;;;;;5021352;28;20544;-72
2021/10/25 04:52:43;;;;;;;19.27;10.37;;;;;;;;;;5023488;28;20265;-71
2021/10/25 04:55:09;;;;;;;17.03;10.17;;;;;;;;;;5022484;28;20240;-72
2021/10/25 04:57:34;;;;;;;13.63;9.67;;;;;;;;;;5015476;28;20244;-72
2021/10/25 05:00:00;;;;;;;16.13;9.93;;;;;;;;;;5025718;28;20190;-72
2021/10/25 05:02:26;;;;;;;15.37;9.30;;;;;;;;;;5017058;28;20233;-72
2021/10/25 05:04:51;;;;;;;17.80;10.30;;;;;;;;;;5027780;28;20214;-71
2021/10/25 05:07:17;;;;;;;15.13;9.80;;;;;;;;;;5016183;28;20191;-73
2021/10/25 05:09:42;;;;;;;14.67;10.47;;;;;;;;;;5022181;28;20317;-72
2021/10/25 05:12:13;;;;;;;13.57;10.30;;;;;;;;;;5018090;28;20552;-72
2021/10/25 05:14:40;;;;;;;15.17;10.23;;;;;;;;;;5019539;28;20221;-72
2021/10/25 05:17:05;;;;;;;13.37;9.53;;;;;;;;;;5018730;28;20261;-73
2021/10/25 05:19:31;;;;;;;16.00;9.57;;;;;;;;;;5018385;28;20187;-72
2021/10/25 05:21:57;;;;;;;16.00;9.73;;;;;;;;;;5019660;28;20217;-73
2021/10/25 05:24:22;;;;;;;17.50;10.47;;;;;;;;;;5023175;28;20201;-71
2021/10/25 05:26:47;;;;;;;17.17;10.67;;;;;;;;;;5023087;28;20189;-72
2021/10/25 05:29:13;;;;;;;18.40;10.10;;;;;;;;;;5017391;28;20194;-72
2021/10/25 05:31:38;;;;;;;14.97;10.23;;;;;;;;;;5022413;28;20327;-73
2021/10/25 05:34:04;;;;;;;17.73;9.90;;;;;;;;;;5016754;28;20194;-72
2021/10/25 05:36:29;;;;;;;15.18;9.55;;;;;;;;;;5024589;28;20229;-71
2021/10/25 05:38:54;;;;;;;16.60;10.60;;;;;;;;;;5014854;28;20570;-71
2021/10/25 05:41:20;;;;;;;17.27;10.67;;;;;;;;;;5024548;28;20214;-71
2021/10/25 05:43:45;;;;;;;14.80;9.93;;;;;;;;;;5017031;28;20209;-71
2021/10/25 05:46:10;;;;;;;16.35;10.05;;;;;;;;;;5027712;28;20193;-72
2021/10/25 05:48:38;;;;;;;12.88;8.77;;;;;;;;;;5016401;28;20285;-71
2021/10/25 05:51:04;;;;;;;13.03;9.30;;;;;;;;;;5021726;28;20195;-71
2021/10/25 05:53:29;;;;;;;15.07;9.53;;;;;;;;;;5021316;28;20182;-71
2021/10/25 05:55:54;;;;;;;13.50;9.20;;;;;;;;;;5022976;28;20543;-71
2021/10/25 05:58:23;;;;;;;14.45;9.85;;;;;;;;;;5023671;28;20182;-72
2021/10/25 06:00:53;;;;;;;15.63;9.43;;;;;;;;;;5016398;28;20182;-71
2021/10/25 06:03:23;;;;;;;13.17;9.47;;;;;;;;;;5021615;28;20237;-71
2021/10/25 06:05:48;;;;;;;20.58;10.52;;;;;;;;;;5014399;28;20189;-72
2021/10/25 06:08:14;;;;;;;11.70;8.93;;;;;;;;;;5019390;28;20526;-72
2021/10/25 06:10:40;;;;;;;13.60;9.57;;;;;;;;;;5014652;28;20185;-71
2021/10/25 06:13:08;;;;;;;12.67;9.37;;;;;;;;;;5024451;28;20190;-72
2021/10/25 06:15:41;;;;;;;14.67;9.33;;;;;;;;;;5016309;28;20999;-71
2021/10/25 06:18:08;;;;;;;16.43;10.07;;;;;;;;;;5042342;28;20194;-71
2021/10/25 06:20:37;;;;;;;14.17;8.97;;;;;;;;;;5017852;28;20202;-74
2021/10/25 06:23:10;;;;;;;14.77;9.47;;;;;;;;;;5027558;28;20616;-71
2021/10/25 06:25:36;;;;;;;14.63;9.63;;;;;;;;;;5017271;28;20807;-73
2021/10/25 06:28:02;;;;;;;14.50;9.43;;;;;;;;;;5027363;28;20269;-71
2021/10/25 06:30:27;;;;;;;12.93;9.23;;;;;;;;;;5017824;28;20669;-71
2021/10/25 06:32:53;;;;;;;16.60;9.47;;;;;;;;;;5025096;28;20189;-72
2021/10/25 06:35:23;;;;;;;17.63;9.33;;;;;;;;;;5025058;28;20182;-72
2021/10/25 06:37:57;;;;;;;17.27;9.30;;;;;;;;;;5017673;28;20185;-72
2021/10/25 06:40:24;;;;;;;13.63;9.27;;;;;;;;;;5023070;28;20284;-72
2021/10/25 06:42:50;;;;;;;13.83;9.67;;;;;;;;;;5016070;28;20202;-72
2021/10/25 06:45:20;;;;;;;16.73;9.53;;;;;;;;;;5023215;28;20630;-72
2021/10/25 06:47:46;;;;;;;14.10;9.03;;;;;;;;;;5016799;28;20189;-73
2021/10/25 06:50:12;;;;;;;17.80;9.80;;;;;;;;;;5023009;28;20182;-72
2021/10/25 06:52:37;;;;;;;13.33;9.43;;;;;;;;;;5012596;28;20265;-71
2021/10/25 06:55:04;;;;;;;16.50;9.47;;;;;;;;;;5024888;28;20652;-72
2021/10/25 06:57:30;;;;;;;16.17;8.77;;;;;;;;;;5018509;28;20202;-72
2021/10/25 06:59:55;;;;;;;12.73;8.90;;;;;;;;;;5025698;28;20186;-73
2021/10/25 07:02:20;;;;;;;12.93;8.27;;;;;;;;;;5014720;28;20201;-72
2021/10/25 07:04:47;;;;;;;13.63;8.77;;;;;;;;;;5026600;28;20194;-72
2021/10/25 07:07:13;;;;;;;13.37;8.27;;;;;;;;;;5017872;28;20200;-72
2021/10/25 07:09:38;;;;;;;15.13;8.60;;;;;;;;;;5025291;28;20217;-72
2021/10/25 07:12:04;;;;;;;14.10;8.37;;;;;;;;;;5025348;28;20217;-72
2021/10/25 07:14:34;;;;;;;15.60;8.30;;;;;;;;;;5017234;28;20586;-72
2021/10/25 07:17:12;;;;;;;15.03;8.70;;;;;;;;;;5027820;28;20351;-72
2021/10/25 08:03:26;;;;;;;13.30;6.63;;;;;;;;;;5029110;28;20193;-73
2021/10/25 08:11:08;;;;;;;14.68;7.40;;;;;;;;;;5020530;28;20197;-73
2021/10/25 08:13:46;;;;;;;12.27;6.80;;;;;;;;;;5025553;28;21720;-72
2021/10/25 08:21:26;;;;;;;11.73;6.10;;;;;;;;;;5018479;28;20194;-72
2021/10/25 08:23:53;;;;;;;11.00;6.00;;;;;;;;;;5026776;28;20205;-73
2021/10/25 08:26:18;;;;;;;8.48;6.00;;;;;;;;;;5021117;28;20182;-73
2021/10/25 08:28:44;;;;;;;9.35;6.05;;;;;;;;;;5028625;28;20190;-74
2021/10/25 08:31:11;;;;;;;8.73;5.60;;;;;;;;;;5029743;28;20189;-73
2021/10/25 08:36:17;;;;;;;8.88;5.65;;;;;;;;;;5029238;28;20194;-73
2021/10/25 08:41:31;;;;;;;7.50;5.10;;;;;;;;;;5026251;28;20193;-73
2021/10/25 08:43:58;;;;;;;8.98;5.72;;;;;;;;;;5022274;28;20217;-73
2021/10/25 08:46:26;;;;;;;11.65;6.03;;;;;;;;;;5025648;28;20483;-73
2021/10/25 08:48:53;;;;;;;8.15;5.82;;;;;;;;;;5019414;28;20178;-74
2021/10/25 08:51:18;;;;;;;10.32;6.93;;;;;;;;;;5029571;28;20189;-74
2021/10/25 08:53:44;;;;;;;10.60;6.35;;;;;;;;;;5016343;28;20233;-74
2021/10/25 08:56:16;;;;;;;12.50;5.65;;;;;;;;;;5025510;28;20217;-74
2021/10/25 08:58:46;;;;;;;9.80;5.45;;;;;;;;;;5017038;28;20592;-75
2021/10/25 09:01:26;;;;;;;8.10;5.30;;;;;;;;;;5029011;28;20280;-75
2021/10/25 09:04:09;;;;;;;9.77;6.03;;;;;;;;;;5017257;28;20224;-74
2021/10/25 09:06:35;;;;;;;9.50;5.53;;;;;;;;;;5027452;28;20202;-74
2021/10/25 09:09:04;;;;;;;8.00;5.47;;;;;;;;;;5019447;28;20293;-75
2021/10/25 09:11:30;;;;;;;8.63;5.18;;;;;;;;;;5027444;28;20469;-73
2021/10/25 09:13:58;;;;;;;8.95;5.50;;;;;;;;;;5017923;28;20319;-72
2021/10/25 09:16:23;;;;;;;8.13;4.80;;;;;;;;;;5027729;28;20205;-72
2021/10/25 09:18:49;;;;;;;8.48;5.38;;;;;;;;;;5019222;28;20213;-74
2021/10/25 09:21:15;;;;;;;11.00;5.85;;;;;;;;;;5029277;28;20363;-74
2021/10/25 09:23:51;;;;;;;8.82;5.70;;;;;;;;;;5027635;28;20677;-73
2021/10/25 09:26:20;;;;;;;9.38;5.97;;;;;;;;;;5019189;28;20199;-73
2021/10/25 09:28:50;;;;;;;8.65;6.05;;;;;;;;;;5025581;28;20676;-74
2021/10/25 09:31:25;;;;;;;12.70;5.78;;;;;;;;;;5018925;28;20225;-72
2021/10/25 09:34:00;;;;;;;10.88;6.85;;;;;;;;;;5029004;28;20716;-72
2021/10/25 09:36:50;;;;;;;10.05;6.03;;;;;;;;;;5017603;28;20252;-72
2021/10/25 09:39:39;;;;;;;11.20;6.32;;;;;;;;;;5024773;28;20206;-74
2021/10/25 09:50:19;;;;;;;10.55;6.13;;;;;;;;;;5027161;28;20635;-73
2021/10/25 09:52:44;;;;;;;9.95;5.68;;;;;;;;;;5023263;28;20201;-72
2021/10/25 09:55:13;;;;;;;8.85;5.30;;;;;;;;;;5026824;28;20182;-72
2021/10/25 09:57:50;;;;;;;8.43;5.43;;;;;;;;;;5018238;28;20236;-73
2021/10/25 10:00:17;;;;;;;11.02;4.90;;;;;;;;;;5027177;28;20788;-72
2021/10/25 10:02:43;;;;;;;11.75;5.32;;;;;;;;;;5014116;28;20300;-73
2021/10/25 10:05:11;;;;;;;8.90;5.03;;;;;;;;;;5027552;28;20182;-74
2021/10/25 10:07:38;;;;;;;11.32;5.47;;;;;;;;;;5017759;28;20182;-74
2021/10/25 10:10:06;;;;;;;7.97;5.65;;;;;;;;;;5024343;28;20226;-75
2021/10/25 10:12:33;;;;;;;10.25;5.10;;;;;;;;;;5016207;28;20631;-74
2021/10/25 10:15:01;;;;;;;9.52;5.63;;;;;;;;;;5027619;28;20190;-76
2021/10/25 10:17:33;;;;;;;13.07;6.10;;;;;;;;;;5017270;28;20808;-73
2021/10/25 10:20:04;;;;;;;7.88;5.30;;;;;;;;;;5027465;28;20333;-73
2021/10/25 10:22:32;;;;;;;12.63;6.00;;;;;;;;;;5017096;28;20213;-73
2021/10/25 10:24:58;;;;;;;7.20;5.50;;;;;;;;;;5025926;28;20193;-72
2021/10/25 10:27:23;;;;;;;10.05;5.82;;;;;;;;;;5015882;28;20417;-73
2021/10/25 10:29:54;;;;;;;8.70;4.88;;;;;;;;;;5023786;28;20665;-72
2021/10/25 10:32:21;;;;;;;7.93;5.30;;;;;;;;;;5022442;28;20174;-73
2021/10/25 10:34:51;;;;;;;10.80;6.00;;;;;;;;;;5014502;28;20182;-73
2021/10/25 10:37:28;;;;;;;10.65;6.00;;;;;;;;;;5024905;28;20212;-73
2021/10/25 10:40:12;;;;;;;13.30;5.68;;;;;;;;;;5017240;28;20212;-73
2021/10/25 10:42:41;;;;;;;12.80;5.50;;;;;;;;;;5025941;28;20687;-73
2021/10/25 10:45:11;;;;;;;8.90;5.20;;;;;;;;;;5011751;28;20191;-73
2021/10/25 10:47:53;;;;;;;10.23;5.47;;;;;;;;;;5027286;28;20190;-73
2021/10/25 10:50:47;;;;;;;9.18;5.05;;;;;;;;;;5017469;28;20186;-72
2021/10/25 10:53:23;;;;;;;8.15;5.20;;;;;;;;;;5024610;28;20572;-73
2021/10/25 10:55:54;;;;;;;7.93;5.53;;;;;;;;;;5023946;28;20657;-73
2021/10/25 10:58:39;;;;;;;9.30;5.50;;;;;;;;;;5025360;28;20221;-74
2021/10/25 11:01:06;;;;;;;8.27;5.72;;;;;;;;;;5025774;28;20185;-74
2021/10/25 11:03:32;;;;;;;9.45;5.40;;;;;;;;;;5024906;28;20280;-73
2021/10/25 11:05:59;;;;;;;7.93;5.50;;;;;;;;;;5017824;28;20201;-73
2021/10/25 11:08:33;;;;;;;9.38;5.70;;;;;;;;;;5024056;28;20282;-73
2021/10/25 11:11:14;;;;;;;9.45;5.88;;;;;;;;;;5017332;28;20272;-72
2021/10/25 11:13:49;;;;;;;8.32;6.15;;;;;;;;;;5022404;28;20181;-73
2021/10/25 11:16:21;;;;;;;9.98;6.25;;;;;;;;;;5010936;28;20280;-73
2021/10/25 11:18:50;;;;;;;8.40;5.60;;;;;;;;;;5027220;28;20170;-73
2021/10/25 11:21:56;;;;;;;9.45;6.00;;;;;;;;;;5016014;28;20248;-73
2021/10/25 11:24:24;;;;;;;9.25;6.43;;;;;;;;;;5002232;28;20218;-72
2021/10/25 11:26:53;;;;;;;8.93;6.05;;;;;;;;;;5011787;28;20293;-73
2021/10/25 11:29:26;;;;;;;11.27;6.32;;;;;;;;;;5024865;28;20251;-73
2021/10/25 11:31:54;;;;;;;10.55;6.88;;;;;;;;;;5015395;28;20190;-72
2021/10/25 11:34:27;;;;;;;12.18;6.25;;;;;;;;;;5025994;28;20716;-73
2021/10/25 11:36:55;;;;;;;12.82;6.05;;;;;;;;;;5017393;28;20232;-73
2021/10/25 11:39:29;;;;;;;8.65;5.90;;;;;;;;;;5029635;28;20182;-73
2021/10/25 11:41:55;;;;;;;11.20;6.70;;;;;;;;;;5020979;28;20189;-74
2021/10/25 11:44:20;;;;;;;8.48;5.85;;;;;;;;;;5025174;28;20217;-73
2021/10/25 11:46:46;;;;;;;8.82;6.38;;;;;;;;;;5018574;28;20703;-71
2021/10/25 11:49:11;;;;;;;15.55;6.10;;;;;;;;;;5025693;28;20286;-72
2021/10/25 11:51:54;;;;;;;9.63;5.47;;;;;;;;;;5021065;28;20196;-72
2021/10/25 11:54:20;;;;;;;10.27;5.50;;;;;;;;;;5025148;28;20220;-72
2021/10/25 11:56:55;;;;;;;10.77;6.18;;;;;;;;;;5019130;28;20234;-73
2021/10/25 11:59:24;;;;;;;7.50;5.13;;;;;;;;;;5027662;28;20589;-73
2021/10/25 12:01:50;;;;;;;10.50;5.90;;;;;;;;;;5019666;28;20182;-73
2021/10/25 12:04:18;;;;;;;9.32;5.53;;;;;;;;;;5024627;28;20217;-73
2021/10/25 12:07:04;;;;;;;8.68;5.80;;;;;;;;;;5028257;28;20178;-73
2021/10/25 12:09:32;;;;;;;9.75;5.72;;;;;;;;;;5024030;28;20249;-73
2021/10/25 12:12:06;;;;;;;9.88;5.43;;;;;;;;;;5028145;28;20255;-71
2021/10/25 12:14:33;;;;;;;10.13;5.38;;;;;;;;;;5019174;28;20619;-73
2021/10/25 12:16:59;;;;;;;9.27;5.35;;;;;;;;;;5025313;28;20281;-74
2021/10/25 12:19:27;;;;;;;8.23;5.40;;;;;;;;;;5020314;28;20301;-74
2021/10/25 12:21:52;;;;;;;11.52;5.65;;;;;;;;;;5030829;28;20232;-73
2021/10/25 12:24:20;;;;;;;8.68;5.22;;;;;;;;;;5019556;28;20616;-73
2021/10/25 12:26:59;;;;;;;9.15;5.40;;;;;;;;;;5031852;28;20256;-73
2021/10/25 12:29:25;;;;;;;9.68;5.28;;;;;;;;;;5017901;28;20200;-72
2021/10/25 12:31:52;;;;;;;11.93;5.00;;;;;;;;;;5026069;28;20178;-72
2021/10/25 12:34:17;;;;;;;11.05;5.80;;;;;;;;;;5020648;28;20213;-74
2021/10/25 12:36:45;;;;;;;10.35;5.05;;;;;;;;;;5025638;28;20992;-73
2021/10/25 12:39:13;;;;;;;8.60;5.20;;;;;;;;;;5014993;28;20642;-71
2021/10/25 12:41:58;;;;;;;9.15;5.03;;;;;;;;;;5027151;28;20282;-72
2021/10/25 12:44:31;;;;;;;11.43;5.95;;;;;;;;;;5016789;28;20225;-73
2021/10/25 12:47:08;;;;;;;6.93;4.88;;;;;;;;;;5024219;28;20248;-72
2021/10/25 12:49:34;;;;;;;8.40;5.32;;;;;;;;;;5019684;28;20196;-75
2021/10/25 12:52:05;;;;;;;10.15;6.25;;;;;;;;;;5026946;28;20278;-73
2021/10/25 12:54:36;;;;;;;12.02;5.63;;;;;;;;;;5018299;28;20174;-73
2021/10/25 12:57:14;;;;;;;19.60;5.57;;;;;;;;;;5027655;28;20539;-73
2021/10/25 12:59:39;;;;;;;10.43;5.05;;;;;;;;;;5019706;28;20555;-72
2021/10/25 13:02:09;;;;;;;7.43;5.15;;;;;;;;;;5029954;28;20231;-71
2021/10/25 13:04:34;;;;;;;10.57;5.35;;;;;;;;;;5025943;28;20224;-72
2021/10/25 13:07:13;;;;;;;7.93;5.00;;;;;;;;;;5018335;28;20193;-72
2021/10/25 13:09:51;;;;;;;13.45;5.32;;;;;;;;;;5023128;28;20303;-72
2021/10/25 13:12:17;;;;;;;10.35;4.90;;;;;;;;;;5018889;28;20199;-73
2021/10/25 13:14:43;;;;;;;8.18;5.00;;;;;;;;;;5022878;28;20185;-72
2021/10/25 13:17:09;;;;;;;8.93;5.47;;;;;;;;;;4328505;28;10000775;-72
2021/10/25 13:19:34;;;;;;;11.68;5.72;;;;;;;;;;5024094;28;20221;-73
2021/10/25 13:21:59;;;;;;;9.32;5.28;;;;;;;;;;5019921;28;20276;-73
2021/10/25 13:24:25;;;;;;;6.65;5.38;;;;;;;;;;5021582;28;20263;-73
2021/10/25 13:26:51;;;;;;;9.38;5.70;;;;;;;;;;5017905;28;20673;-73
2021/10/25 13:29:16;;;;;;;10.75;6.22;;;;;;;;;;5020416;28;20194;-72
2021/10/25 13:31:42;;;;;;;8.02;5.55;;;;;;;;;;5015250;28;20669;-73
2021/10/25 13:34:08;;;;;;;11.38;6.15;;;;;;;;;;5024881;28;20324;-74
2021/10/25 13:36:34;;;;;;;9.68;5.28;;;;;;;;;;5017316;28;20201;-72
2021/10/25 13:38:59;;;;;;;9.00;5.50;;;;;;;;;;5020746;28;20201;-74
2021/10/25 13:41:24;;;;;;;9.38;5.40;;;;;;;;;;5025430;28;20190;-73
2021/10/25 13:43:50;;;;;;;7.75;4.85;;;;;;;;;;5016955;28;20677;-73
2021/10/25 13:46:15;;;;;;;9.52;5.82;;;;;;;;;;5024538;28;20393;-73
2021/10/25 13:48:41;;;;;;;7.47;5.50;;;;;;;;;;5013922;28;20319;-73
2021/10/25 13:51:06;;;;;;;7.90;5.32;;;;;;;;;;5026360;28;20593;-74
2021/10/25 13:53:33;;;;;;;9.15;5.88;;;;;;;;;;5013493;28;20196;-73
2021/10/25 13:55:59;;;;;;;14.02;6.28;;;;;;;;;;5024096;28;20241;-73
2021/10/25 13:58:25;;;;;;;13.02;5.68;;;;;;;;;;5015054;28;20209;-74
2021/10/25 14:00:50;;;;;;;11.07;5.97;;;;;;;;;;5022629;28;20511;-76
2021/10/25 14:03:15;;;;;;;11.38;5.82;;;;;;;;;;5015540;28;20293;-74
2021/10/25 14:05:41;;;;;;;9.30;6.38;;;;;;;;;;5023019;28;20210;-74
2021/10/25 14:08:06;;;;;;;9.60;5.50;;;;;;;;;;5015965;28;20190;-73
2021/10/25 14:10:42;;;;;;;9.00;6.05;;;;;;;;;;5023140;28;20236;-74
2021/10/25 14:13:13;;;;;;;10.55;5.95;;;;;;;;;;5014915;28;20223;-72
2021/10/25 14:15:45;;;;;;;11.82;6.05;;;;;;;;;;5021727;28;20185;-72
2021/10/25 14:18:12;;;;;;;7.95;6.10;;;;;;;;;;5014506;28;20227;-72
2021/10/25 14:20:39;;;;;;;11.00;5.82;;;;;;;;;;5017483;28;20194;-73
2021/10/25 14:23:07;;;;;;;9.85;5.93;;;;;;;;;;5019969;28;20203;-72
2021/10/25 14:25:33;;;;;;;8.38;5.88;;;;;;;;;;5016259;28;20182;-72
2021/10/25 14:28:01;;;;;;;9.65;6.10;;;;;;;;;;5022590;28;20289;-73
2021/10/25 14:30:27;;;;;;;9.82;6.20;;;;;;;;;;5011219;28;20197;-73
2021/10/25 14:32:52;;;;;;;11.05;6.13;;;;;;;;;;5023570;28;20216;-74
2021/10/25 14:35:18;;;;;;;10.05;5.82;;;;;;;;;;5011750;28;20222;-71
2021/10/25 14:37:45;;;;;;;9.82;5.95;;;;;;;;;;5022109;28;20248;-73
2021/10/25 14:40:12;;;;;;;12.63;5.93;;;;;;;;;;5010646;28;20198;-73
2021/10/25 14:42:42;;;;;;;9.85;5.88;;;;;;;;;;5018604;28;20194;-74
2021/10/25 14:55:57;;;;;;;7.88;5.60;;;;;;;;;;5009219;28;20671;-74
2021/10/25 14:58:26;;;;;;;7.15;5.50;;;;;;;;;;5021400;28;20193;-73
2021/10/25 15:00:52;;;;;;;9.82;5.43;;;;;;;;;;5014222;28;20353;-73
2021/10/25 15:03:21;;;;;;;10.52;5.88;;;;;;;;;;5020638;28;20343;-73
2021/10/25 15:05:46;;;;;;;7.75;5.78;;;;;;;;;;5013831;28;20197;-72
2021/10/25 15:08:12;;;;;;;9.02;5.93;;;;;;;;;;5023594;28;20551;-72
2021/10/25 15:10:37;;;;;;;9.68;6.13;;;;;;;;;;5022177;28;20174;-73
2021/10/25 15:13:02;;;;;;;7.57;5.85;;;;;;;;;;5009976;28;20186;-74
2021/10/25 15:15:28;;;;;;;8.43;6.20;;;;;;;;;;5023030;28;20185;-73
2021/10/25 15:17:54;;;;;;;8.10;5.95;;;;;;;;;;5015242;28;20183;-73
2021/10/25 15:20:21;;;;;;;9.80;6.40;;;;;;;;;;5023851;28;20786;-72
2021/10/25 15:22:47;;;;;;;9.68;5.63;;;;;;;;;;5012237;28;20201;-72
2021/10/25 15:25:15;;;;;;;8.88;6.00;;;;;;;;;;5023461;28;20365;-71
2021/10/25 15:27:42;;;;;;;8.52;5.95;;;;;;;;;;5013045;28;20198;-72
2021/10/25 15:30:09;;;;;;;9.15;6.20;;;;;;;;;;5022487;28;20280;-73
2021/10/25 15:32:35;;;;;;;9.25;6.68;;;;;;;;;;5013873;28;20667;-73
2021/10/25 15:35:01;;;;;;;8.82;6.22;;;;;;;;;;5018675;28;20190;-73
2021/10/25 15:37:28;;;;;;;10.68;5.63;;;;;;;;;;5012625;28;20551;-73
2021/10/25 15:39:55;;;;;;;14.77;5.82;;;;;;;;;;5021747;28;20265;-73
2021/10/25 15:42:22;;;;;;;9.38;6.10;;;;;;;;;;5016708;28;20178;-72
2021/10/25 15:44:49;;;;;;;8.13;5.35;;;;;;;;;;5022868;28;20599;-73
2021/10/25 15:47:16;;;;;;;10.20;6.68;;;;;;;;;;5022343;28;20219;-73
2021/10/25 15:49:42;;;;;;;11.52;5.72;;;;;;;;;;5017169;28;20182;-73
2021/10/25 15:52:10;;;;;;;7.93;6.30;;;;;;;;;;5026816;28;20179;-73
2021/10/25 15:54:35;;;;;;;7.07;5.40;;;;;;;;;;5015849;28;20190;-73
2021/10/25 15:57:01;;;;;;;7.25;5.95;;;;;;;;;;5018592;28;20732;-73
2021/10/25 15:59:27;;;;;;;7.57;5.65;;;;;;;;;;4666976;28;10000217;-72
2021/10/25 16:01:52;;;;;;;11.90;6.30;;;;;;;;;;5019624;28;20928;-73
2021/10/25 16:04:18;;;;;;;15.77;8.10;;;;;;;;;;5009696;28;20280;-72
2021/10/25 16:06:44;;;;;;;12.45;6.93;;;;;;;;;;5019306;28;20186;-72
2021/10/25 16:09:10;;;;;;;12.55;8.35;;;;;;;;;;5011891;28;20257;-72
2021/10/25 16:11:36;;;;;;;12.13;7.63;;;;;;;;;;5019019;28;20281;-72
2021/10/25 16:14:03;;;;;;;13.07;7.93;;;;;;;;;;5011857;28;20193;-72
2021/10/25 16:16:29;;;;;;;14.88;8.02;;;;;;;;;;5020475;28;20186;-71